sensor_id;sensor_type;location;lat;lon;timestamp;P1;durP1;ratioP1;P2;durP2;ratioP2
32138;SDS011;18644;48.700;9.210;2023-01-09T00:01:01;2.30;;;2.10;;
32138;SDS011;18644;48.700;9.210;2023-01-09T00:03:36;2.20;;;2.00;;
32138;SDS011;18644;48.700;9.210;2023-01-09T00:06:03;2.50;;;1.90;;
32138;SDS011;18644;48.700;9.210;2023-01-09T00:08:30;2.65;;;2.08;;
32138;SDS011;18644;48.700;9.210;2023-01-09T00:10:57;1.90;;;1.70;;
32138;SDS011;18644;48.700;9.210;2023-01-09T00:13:24;2.63;;;1.88;;
32138;SDS011;18644;48.700;9.210;2023-01-09T00:15:52;2.40;;;1.80;;
32138;SDS011;18644;48.700;9.210;2023-01-09T00:18:20;3.10;;;1.80;;
32138;SDS011;18644;48.700;9.210;2023-01-09T00:20:46;1.65;;;1.55;;
32138;SDS011;18644;48.700;9.210;2023-01-09T00:23:13;1.98;;;1.60;;
32138;SDS011;18644;48.700;9.210;2023-01-09T00:25:41;1.83;;;1.38;;
32138;SDS011;18644;48.700;9.210;2023-01-09T00:28:08;1.60;;;1.50;;
32138;SDS011;18644;48.700;9.210;2023-01-09T00:30:35;1.30;;;1.20;;
32138;SDS011;18644;48.700;9.210;2023-01-09T00:33:03;1.88;;;1.52;;
32138;SDS011;18644;48.700;9.210;2023-01-09T00:35:30;1.15;;;1.13;;
32138;SDS011;18644;48.700;9.210;2023-01-09T00:37:57;1.20;;;1.10;;
32138;SDS011;18644;48.700;9.210;2023-01-09T00:40:24;1.10;;;1.05;;
32138;SDS011;18644;48.700;9.210;2023-01-09T00:42:52;1.33;;;1.20;;
32138;SDS011;18644;48.700;9.210;2023-01-09T00:45:22;1.00;;;1.00;;
32138;SDS011;18644;48.700;9.210;2023-01-09T00:47:54;1.00;;;1.00;;
32138;SDS011;18644;48.700;9.210;2023-01-09T00:50:25;1.27;;;1.00;;
32138;SDS011;18644;48.700;9.210;2023-01-09T00:52:56;0.75;;;0.75;;
32138;SDS011;18644;48.700;9.210;2023-01-09T00:55:28;0.68;;;0.68;;
32138;SDS011;18644;48.700;9.210;2023-01-09T00:57:56;0.90;;;0.80;;
32138;SDS011;18644;48.700;9.210;2023-01-09T01:00:23;0.80;;;0.80;;
32138;SDS011;18644;48.700;9.210;2023-01-09T01:02:49;1.20;;;1.10;;
32138;SDS011;18644;48.700;9.210;2023-01-09T01:05:16;0.70;;;0.70;;
32138;SDS011;18644;48.700;9.210;2023-01-09T01:08:08;0.68;;;0.68;;
32138;SDS011;18644;48.700;9.210;2023-01-09T01:10:36;0.60;;;0.60;;
32138;SDS011;18644;48.700;9.210;2023-01-09T01:13:03;0.70;;;0.70;;
32138;SDS011;18644;48.700;9.210;2023-01-09T01:15:30;0.77;;;0.60;;
32138;SDS011;18644;48.700;9.210;2023-01-09T01:17:57;0.60;;;0.60;;
32138;SDS011;18644;48.700;9.210;2023-01-09T01:20:23;0.65;;;0.65;;
32138;SDS011;18644;48.700;9.210;2023-01-09T01:22:50;0.70;;;0.70;;
32138;SDS011;18644;48.700;9.210;2023-01-09T01:25:19;0.60;;;0.60;;
32138;SDS011;18644;48.700;9.210;2023-01-09T01:27:46;0.70;;;0.70;;
32138;SDS011;18644;48.700;9.210;2023-01-09T01:30:13;3.00;;;0.60;;
32138;SDS011;18644;48.700;9.210;2023-01-09T01:32:42;3.35;;;0.80;;
32138;SDS011;18644;48.700;9.210;2023-01-09T01:35:09;0.52;;;0.52;;
32138;SDS011;18644;48.700;9.210;2023-01-09T01:37:37;0.50;;;0.50;;
32138;SDS011;18644;48.700;9.210;2023-01-09T01:40:05;0.70;;;0.70;;
32138;SDS011;18644;48.700;9.210;2023-01-09T01:42:35;0.63;;;0.63;;
32138;SDS011;18644;48.700;9.210;2023-01-09T01:45:04;0.73;;;0.52;;
32138;SDS011;18644;48.700;9.210;2023-01-09T01:47:36;0.50;;;0.50;;
32138;SDS011;18644;48.700;9.210;2023-01-09T01:50:12;0.50;;;0.50;;
32138;SDS011;18644;48.700;9.210;2023-01-09T01:52:57;0.50;;;0.50;;
32138;SDS011;18644;48.700;9.210;2023-01-09T01:55:32;0.50;;;0.50;;
32138;SDS011;18644;48.700;9.210;2023-01-09T01:58:02;0.60;;;0.60;;
32138;SDS011;18644;48.700;9.210;2023-01-09T02:00:33;0.60;;;0.60;;
32138;SDS011;18644;48.700;9.210;2023-01-09T02:03:04;0.40;;;0.40;;
32138;SDS011;18644;48.700;9.210;2023-01-09T02:05:33;0.55;;;0.50;;
32138;SDS011;18644;48.700;9.210;2023-01-09T02:08:01;0.43;;;0.43;;
32138;SDS011;18644;48.700;9.210;2023-01-09T02:10:29;0.50;;;0.50;;
32138;SDS011;18644;48.700;9.210;2023-01-09T02:12:57;0.50;;;0.50;;
32138;SDS011;18644;48.700;9.210;2023-01-09T02:15:26;0.40;;;0.40;;
32138;SDS011;18644;48.700;9.210;2023-01-09T02:18:15;0.45;;;0.40;;
32138;SDS011;18644;48.700;9.210;2023-01-09T02:21:25;0.50;;;0.50;;
32138;SDS011;18644;48.700;9.210;2023-01-09T02:27:08;0.50;;;0.50;;
32138;SDS011;18644;48.700;9.210;2023-01-09T02:32:57;0.40;;;0.40;;
32138;SDS011;18644;48.700;9.210;2023-01-09T02:35:40;0.45;;;0.40;;
32138;SDS011;18644;48.700;9.210;2023-01-09T02:38:24;0.55;;;0.55;;
32138;SDS011;18644;48.700;9.210;2023-01-09T02:40:59;0.50;;;0.50;;
32138;SDS011;18644;48.700;9.210;2023-01-09T02:43:31;0.50;;;0.50;;
32138;SDS011;18644;48.700;9.210;2023-01-09T02:45:59;0.60;;;0.60;;
32138;SDS011;18644;48.700;9.210;2023-01-09T02:48:26;0.40;;;0.40;;
32138;SDS011;18644;48.700;9.210;2023-01-09T02:50:58;0.40;;;0.40;;
32138;SDS011;18644;48.700;9.210;2023-01-09T02:53:46;0.40;;;0.40;;
32138;SDS011;18644;48.700;9.210;2023-01-09T02:56:30;0.50;;;0.50;;
32138;SDS011;18644;48.700;9.210;2023-01-09T02:59:20;0.52;;;0.52;;
32138;SDS011;18644;48.700;9.210;2023-01-09T03:02:07;0.47;;;0.47;;
32138;SDS011;18644;48.700;9.210;2023-01-09T03:05:00;0.40;;;0.40;;
32138;SDS011;18644;48.700;9.210;2023-01-09T03:07:33;0.50;;;0.50;;
32138;SDS011;18644;48.700;9.210;2023-01-09T03:10:08;2.55;;;0.70;;
32138;SDS011;18644;48.700;9.210;2023-01-09T03:12:40;0.52;;;0.52;;
32138;SDS011;18644;48.700;9.210;2023-01-09T03:15:09;0.32;;;0.32;;
32138;SDS011;18644;48.700;9.210;2023-01-09T03:17:41;0.50;;;0.50;;
32138;SDS011;18644;48.700;9.210;2023-01-09T03:20:13;0.35;;;0.35;;
32138;SDS011;18644;48.700;9.210;2023-01-09T03:22:44;0.40;;;0.40;;
32138;SDS011;18644;48.700;9.210;2023-01-09T03:25:18;0.40;;;0.40;;
32138;SDS011;18644;48.700;9.210;2023-01-09T03:27:45;0.40;;;0.40;;
32138;SDS011;18644;48.700;9.210;2023-01-09T03:30:12;0.30;;;0.30;;
32138;SDS011;18644;48.700;9.210;2023-01-09T03:32:41;0.63;;;0.52;;
32138;SDS011;18644;48.700;9.210;2023-01-09T03:35:08;0.35;;;0.35;;
32138;SDS011;18644;48.700;9.210;2023-01-09T03:37:35;0.68;;;0.40;;
32138;SDS011;18644;48.700;9.210;2023-01-09T03:40:02;0.40;;;0.40;;
32138;SDS011;18644;48.700;9.210;2023-01-09T03:42:30;2.08;;;0.50;;
32138;SDS011;18644;48.700;9.210;2023-01-09T03:44:57;0.30;;;0.30;;
32138;SDS011;18644;48.700;9.210;2023-01-09T03:47:23;0.40;;;0.40;;
32138;SDS011;18644;48.700;9.210;2023-01-09T03:49:52;0.40;;;0.40;;
32138;SDS011;18644;48.700;9.210;2023-01-09T03:52:19;0.50;;;0.50;;
32138;SDS011;18644;48.700;9.210;2023-01-09T03:54:45;0.40;;;0.40;;
32138;SDS011;18644;48.700;9.210;2023-01-09T03:57:12;1.05;;;0.40;;
32138;SDS011;18644;48.700;9.210;2023-01-09T03:59:39;0.40;;;0.40;;
32138;SDS011;18644;48.700;9.210;2023-01-09T04:02:06;0.63;;;0.57;;
32138;SDS011;18644;48.700;9.210;2023-01-09T04:04:33;0.55;;;0.40;;
32138;SDS011;18644;48.700;9.210;2023-01-09T04:07:01;0.40;;;0.40;;
32138;SDS011;18644;48.700;9.210;2023-01-09T04:09:28;0.75;;;0.40;;
32138;SDS011;18644;48.700;9.210;2023-01-09T04:11:55;0.40;;;0.40;;
32138;SDS011;18644;48.700;9.210;2023-01-09T04:14:22;0.93;;;0.50;;
32138;SDS011;18644;48.700;9.210;2023-01-09T04:16:49;0.40;;;0.40;;
32138;SDS011;18644;48.700;9.210;2023-01-09T04:19:16;0.68;;;0.57;;
32138;SDS011;18644;48.700;9.210;2023-01-09T04:21:43;0.88;;;0.60;;
32138;SDS011;18644;48.700;9.210;2023-01-09T04:24:11;0.40;;;0.40;;
32138;SDS011;18644;48.700;9.210;2023-01-09T04:26:38;0.40;;;0.40;;
32138;SDS011;18644;48.700;9.210;2023-01-09T04:29:05;0.40;;;0.40;;
32138;SDS011;18644;48.700;9.210;2023-01-09T04:31:32;0.30;;;0.30;;
32138;SDS011;18644;48.700;9.210;2023-01-09T04:33:58;0.38;;;0.38;;
32138;SDS011;18644;48.700;9.210;2023-01-09T04:36:25;0.30;;;0.30;;
32138;SDS011;18644;48.700;9.210;2023-01-09T04:38:52;0.30;;;0.30;;
32138;SDS011;18644;48.700;9.210;2023-01-09T04:41:20;0.40;;;0.40;;
32138;SDS011;18644;48.700;9.210;2023-01-09T04:44:05;0.32;;;0.32;;
32138;SDS011;18644;48.700;9.210;2023-01-09T04:46:32;0.38;;;0.38;;
32138;SDS011;18644;48.700;9.210;2023-01-09T04:48:58;0.65;;;0.40;;
32138;SDS011;18644;48.700;9.210;2023-01-09T04:51:25;0.40;;;0.40;;
32138;SDS011;18644;48.700;9.210;2023-01-09T04:53:52;0.40;;;0.40;;
32138;SDS011;18644;48.700;9.210;2023-01-09T04:56:20;0.40;;;0.40;;
32138;SDS011;18644;48.700;9.210;2023-01-09T04:58:47;0.40;;;0.40;;
32138;SDS011;18644;48.700;9.210;2023-01-09T05:01:14;0.40;;;0.40;;
32138;SDS011;18644;48.700;9.210;2023-01-09T05:03:41;0.43;;;0.40;;
32138;SDS011;18644;48.700;9.210;2023-01-09T05:06:08;0.43;;;0.40;;
32138;SDS011;18644;48.700;9.210;2023-01-09T05:08:35;1.02;;;0.40;;
32138;SDS011;18644;48.700;9.210;2023-01-09T05:11:02;0.47;;;0.40;;
32138;SDS011;18644;48.700;9.210;2023-01-09T05:13:30;0.40;;;0.40;;
32138;SDS011;18644;48.700;9.210;2023-01-09T05:15:57;0.40;;;0.40;;
32138;SDS011;18644;48.700;9.210;2023-01-09T05:18:24;0.40;;;0.40;;
32138;SDS011;18644;48.700;9.210;2023-01-09T05:20:51;0.50;;;0.50;;
32138;SDS011;18644;48.700;9.210;2023-01-09T05:23:18;0.40;;;0.40;;
32138;SDS011;18644;48.700;9.210;2023-01-09T05:25:45;0.40;;;0.40;;
32138;SDS011;18644;48.700;9.210;2023-01-09T05:28:12;0.40;;;0.40;;
32138;SDS011;18644;48.700;9.210;2023-01-09T05:30:40;0.40;;;0.40;;
32138;SDS011;18644;48.700;9.210;2023-01-09T05:33:07;0.40;;;0.40;;
32138;SDS011;18644;48.700;9.210;2023-01-09T05:35:34;0.40;;;0.40;;
32138;SDS011;18644;48.700;9.210;2023-01-09T05:38:01;0.40;;;0.40;;
32138;SDS011;18644;48.700;9.210;2023-01-09T05:40:28;0.43;;;0.43;;
32138;SDS011;18644;48.700;9.210;2023-01-09T05:42:55;1.85;;;0.70;;
32138;SDS011;18644;48.700;9.210;2023-01-09T05:45:22;0.40;;;0.40;;
32138;SDS011;18644;48.700;9.210;2023-01-09T05:47:50;0.40;;;0.40;;
32138;SDS011;18644;48.700;9.210;2023-01-09T05:50:17;0.40;;;0.40;;
32138;SDS011;18644;48.700;9.210;2023-01-09T05:52:44;1.70;;;0.50;;
32138;SDS011;18644;48.700;9.210;2023-01-09T05:55:11;0.40;;;0.40;;
32138;SDS011;18644;48.700;9.210;2023-01-09T05:57:38;0.50;;;0.50;;
32138;SDS011;18644;48.700;9.210;2023-01-09T06:00:06;0.45;;;0.45;;
32138;SDS011;18644;48.700;9.210;2023-01-09T06:02:34;0.40;;;0.40;;
32138;SDS011;18644;48.700;9.210;2023-01-09T06:05:03;0.40;;;0.40;;
32138;SDS011;18644;48.700;9.210;2023-01-09T06:07:31;1.00;;;0.55;;
32138;SDS011;18644;48.700;9.210;2023-01-09T06:10:00;0.40;;;0.40;;
32138;SDS011;18644;48.700;9.210;2023-01-09T06:12:28;0.47;;;0.47;;
32138;SDS011;18644;48.700;9.210;2023-01-09T06:14:55;1.08;;;0.40;;
32138;SDS011;18644;48.700;9.210;2023-01-09T06:17:21;0.77;;;0.60;;
32138;SDS011;18644;48.700;9.210;2023-01-09T06:19:48;0.40;;;0.40;;
32138;SDS011;18644;48.700;9.210;2023-01-09T06:22:17;0.40;;;0.40;;
32138;SDS011;18644;48.700;9.210;2023-01-09T06:24:44;0.40;;;0.40;;
32138;SDS011;18644;48.700;9.210;2023-01-09T06:27:11;0.50;;;0.40;;
32138;SDS011;18644;48.700;9.210;2023-01-09T06:29:38;0.50;;;0.50;;
32138;SDS011;18644;48.700;9.210;2023-01-09T06:32:05;0.40;;;0.40;;
32138;SDS011;18644;48.700;9.210;2023-01-09T06:34:32;0.63;;;0.60;;
32138;SDS011;18644;48.700;9.210;2023-01-09T06:37:00;0.85;;;0.50;;
32138;SDS011;18644;48.700;9.210;2023-01-09T06:39:28;0.57;;;0.50;;
32138;SDS011;18644;48.700;9.210;2023-01-09T06:41:55;1.58;;;0.70;;
32138;SDS011;18644;48.700;9.210;2023-01-09T06:44:22;1.48;;;0.80;;
32138;SDS011;18644;48.700;9.210;2023-01-09T06:46:49;0.57;;;0.50;;
32138;SDS011;18644;48.700;9.210;2023-01-09T06:49:16;0.55;;;0.50;;
32138;SDS011;18644;48.700;9.210;2023-01-09T06:51:47;0.55;;;0.52;;
32138;SDS011;18644;48.700;9.210;2023-01-09T06:54:14;0.93;;;0.57;;
32138;SDS011;18644;48.700;9.210;2023-01-09T06:56:43;0.60;;;0.60;;
32138;SDS011;18644;48.700;9.210;2023-01-09T06:59:10;2.15;;;0.90;;
32138;SDS011;18644;48.700;9.210;2023-01-09T07:01:37;0.77;;;0.50;;
32138;SDS011;18644;48.700;9.210;2023-01-09T07:04:05;0.55;;;0.50;;
32138;SDS011;18644;48.700;9.210;2023-01-09T07:06:33;0.40;;;0.40;;
32138;SDS011;18644;48.700;9.210;2023-01-09T07:09:00;0.50;;;0.50;;
32138;SDS011;18644;48.700;9.210;2023-01-09T07:11:28;0.60;;;0.60;;
32138;SDS011;18644;48.700;9.210;2023-01-09T07:13:56;1.67;;;0.70;;
32138;SDS011;18644;48.700;9.210;2023-01-09T07:16:23;0.52;;;0.50;;
32138;SDS011;18644;48.700;9.210;2023-01-09T07:18:50;1.40;;;0.55;;
32138;SDS011;18644;48.700;9.210;2023-01-09T07:21:18;1.23;;;0.60;;
32138;SDS011;18644;48.700;9.210;2023-01-09T07:23:45;0.50;;;0.50;;
32138;SDS011;18644;48.700;9.210;2023-01-09T07:26:12;0.50;;;0.50;;
32138;SDS011;18644;48.700;9.210;2023-01-09T07:28:39;0.95;;;0.57;;
32138;SDS011;18644;48.700;9.210;2023-01-09T07:31:07;1.00;;;0.55;;
32138;SDS011;18644;48.700;9.210;2023-01-09T07:33:34;2.42;;;0.70;;
32138;SDS011;18644;48.700;9.210;2023-01-09T07:36:01;1.48;;;0.70;;
32138;SDS011;18644;48.700;9.210;2023-01-09T07:38:28;1.05;;;0.70;;
32138;SDS011;18644;48.700;9.210;2023-01-09T07:40:56;5.03;;;1.17;;
32138;SDS011;18644;48.700;9.210;2023-01-09T07:43:22;2.63;;;0.80;;
32138;SDS011;18644;48.700;9.210;2023-01-09T07:45:55;1.67;;;0.65;;
32138;SDS011;18644;48.700;9.210;2023-01-09T07:48:23;1.10;;;0.70;;
32138;SDS011;18644;48.700;9.210;2023-01-09T07:50:50;1.48;;;0.60;;
32138;SDS011;18644;48.700;9.210;2023-01-09T07:53:17;0.80;;;0.60;;
32138;SDS011;18644;48.700;9.210;2023-01-09T07:55:44;2.05;;;0.70;;
32138;SDS011;18644;48.700;9.210;2023-01-09T07:58:11;3.20;;;0.73;;
32138;SDS011;18644;48.700;9.210;2023-01-09T08:00:38;0.77;;;0.60;;
32138;SDS011;18644;48.700;9.210;2023-01-09T08:03:05;1.95;;;1.15;;
32138;SDS011;18644;48.700;9.210;2023-01-09T08:05:33;4.00;;;1.00;;
32138;SDS011;18644;48.700;9.210;2023-01-09T08:08:00;1.27;;;0.82;;
32138;SDS011;18644;48.700;9.210;2023-01-09T08:10:27;2.50;;;0.70;;
32138;SDS011;18644;48.700;9.210;2023-01-09T08:12:54;1.38;;;0.65;;
32138;SDS011;18644;48.700;9.210;2023-01-09T08:15:21;2.22;;;0.50;;
32138;SDS011;18644;48.700;9.210;2023-01-09T08:17:48;0.70;;;0.52;;
32138;SDS011;18644;48.700;9.210;2023-01-09T08:20:15;1.73;;;0.63;;
32138;SDS011;18644;48.700;9.210;2023-01-09T08:22:45;1.15;;;0.80;;
32138;SDS011;18644;48.700;9.210;2023-01-09T08:25:14;1.83;;;0.65;;
32138;SDS011;18644;48.700;9.210;2023-01-09T08:27:42;1.30;;;0.60;;
32138;SDS011;18644;48.700;9.210;2023-01-09T08:30:09;1.42;;;0.70;;
32138;SDS011;18644;48.700;9.210;2023-01-09T08:32:37;1.25;;;0.60;;
32138;SDS011;18644;48.700;9.210;2023-01-09T08:35:05;0.50;;;0.50;;
32138;SDS011;18644;48.700;9.210;2023-01-09T08:37:33;3.05;;;0.80;;
32138;SDS011;18644;48.700;9.210;2023-01-09T08:40:02;2.00;;;0.65;;
32138;SDS011;18644;48.700;9.210;2023-01-09T08:42:29;2.55;;;0.70;;
32138;SDS011;18644;48.700;9.210;2023-01-09T08:45:14;0.93;;;0.77;;
32138;SDS011;18644;48.700;9.210;2023-01-09T08:47:58;8.98;;;1.50;;
32138;SDS011;18644;48.700;9.210;2023-01-09T08:50:25;1.25;;;0.85;;
32138;SDS011;18644;48.700;9.210;2023-01-09T08:52:52;1.45;;;0.60;;
32138;SDS011;18644;48.700;9.210;2023-01-09T08:55:20;0.52;;;0.52;;
32138;SDS011;18644;48.700;9.210;2023-01-09T08:57:47;1.55;;;0.98;;
32138;SDS011;18644;48.700;9.210;2023-01-09T09:00:15;1.17;;;0.60;;
32138;SDS011;18644;48.700;9.210;2023-01-09T09:02:42;2.35;;;0.95;;
32138;SDS011;18644;48.700;9.210;2023-01-09T09:05:09;1.38;;;0.60;;
32138;SDS011;18644;48.700;9.210;2023-01-09T09:07:36;5.05;;;0.80;;
32138;SDS011;18644;48.700;9.210;2023-01-09T09:10:03;1.25;;;0.60;;
32138;SDS011;18644;48.700;9.210;2023-01-09T09:12:32;1.90;;;0.73;;
32138;SDS011;18644;48.700;9.210;2023-01-09T09:14:59;2.05;;;0.85;;
32138;SDS011;18644;48.700;9.210;2023-01-09T09:17:40;3.60;;;0.75;;
32138;SDS011;18644;48.700;9.210;2023-01-09T09:20:10;3.47;;;0.90;;
32138;SDS011;18644;48.700;9.210;2023-01-09T09:22:37;2.30;;;0.90;;
32138;SDS011;18644;48.700;9.210;2023-01-09T09:25:04;3.03;;;0.90;;
32138;SDS011;18644;48.700;9.210;2023-01-09T09:27:33;1.58;;;0.65;;
32138;SDS011;18644;48.700;9.210;2023-01-09T09:30:02;1.23;;;0.65;;
32138;SDS011;18644;48.700;9.210;2023-01-09T09:32:30;2.30;;;0.73;;
32138;SDS011;18644;48.700;9.210;2023-01-09T09:34:57;1.35;;;0.63;;
32138;SDS011;18644;48.700;9.210;2023-01-09T09:37:24;2.45;;;0.90;;
32138;SDS011;18644;48.700;9.210;2023-01-09T09:39:51;1.40;;;0.80;;
32138;SDS011;18644;48.700;9.210;2023-01-09T09:42:27;4.13;;;1.45;;
32138;SDS011;18644;48.700;9.210;2023-01-09T09:45:37;1.83;;;1.00;;
32138;SDS011;18644;48.700;9.210;2023-01-09T09:48:18;2.17;;;0.70;;
32138;SDS011;18644;48.700;9.210;2023-01-09T09:51:04;5.32;;;0.75;;
32138;SDS011;18644;48.700;9.210;2023-01-09T09:53:53;2.33;;;0.90;;
32138;SDS011;18644;48.700;9.210;2023-01-09T09:56:25;0.90;;;0.80;;
32138;SDS011;18644;48.700;9.210;2023-01-09T09:58:57;3.65;;;0.90;;
32138;SDS011;18644;48.700;9.210;2023-01-09T10:01:30;2.67;;;0.55;;
32138;SDS011;18644;48.700;9.210;2023-01-09T10:04:05;2.50;;;0.80;;
32138;SDS011;18644;48.700;9.210;2023-01-09T10:06:36;2.67;;;0.98;;
32138;SDS011;18644;48.700;9.210;2023-01-09T10:09:11;1.00;;;0.57;;
32138;SDS011;18644;48.700;9.210;2023-01-09T10:11:45;1.98;;;0.80;;
32138;SDS011;18644;48.700;9.210;2023-01-09T10:14:19;1.60;;;0.70;;
32138;SDS011;18644;48.700;9.210;2023-01-09T10:16:54;1.77;;;0.90;;
32138;SDS011;18644;48.700;9.210;2023-01-09T10:19:48;2.40;;;0.93;;
32138;SDS011;18644;48.700;9.210;2023-01-09T10:22:29;4.38;;;1.20;;
32138;SDS011;18644;48.700;9.210;2023-01-09T10:25:11;1.60;;;0.80;;
32138;SDS011;18644;48.700;9.210;2023-01-09T10:27:59;4.63;;;1.10;;
32138;SDS011;18644;48.700;9.210;2023-01-09T10:30:50;3.30;;;1.23;;
32138;SDS011;18644;48.700;9.210;2023-01-09T10:33:30;1.80;;;0.82;;
32138;SDS011;18644;48.700;9.210;2023-01-09T10:36:16;1.05;;;0.80;;
32138;SDS011;18644;48.700;9.210;2023-01-09T10:39:04;2.35;;;0.75;;
32138;SDS011;18644;48.700;9.210;2023-01-09T10:41:36;2.10;;;0.73;;
32138;SDS011;18644;48.700;9.210;2023-01-09T10:44:10;3.35;;;0.77;;
32138;SDS011;18644;48.700;9.210;2023-01-09T10:46:46;5.35;;;0.90;;
32138;SDS011;18644;48.700;9.210;2023-01-09T10:49:18;1.35;;;0.90;;
32138;SDS011;18644;48.700;9.210;2023-01-09T10:51:48;2.50;;;0.93;;
32138;SDS011;18644;48.700;9.210;2023-01-09T10:54:17;3.22;;;0.90;;
32138;SDS011;18644;48.700;9.210;2023-01-09T10:56:50;3.58;;;0.93;;
32138;SDS011;18644;48.700;9.210;2023-01-09T10:59:21;3.38;;;1.00;;
32138;SDS011;18644;48.700;9.210;2023-01-09T11:01:50;3.28;;;1.33;;
32138;SDS011;18644;48.700;9.210;2023-01-09T11:04:19;2.78;;;0.77;;
32138;SDS011;18644;48.700;9.210;2023-01-09T11:06:54;3.13;;;0.93;;
32138;SDS011;18644;48.700;9.210;2023-01-09T11:09:25;2.72;;;0.70;;
32138;SDS011;18644;48.700;9.210;2023-01-09T11:11:52;1.08;;;0.80;;
32138;SDS011;18644;48.700;9.210;2023-01-09T11:14:22;4.43;;;1.17;;
32138;SDS011;18644;48.700;9.210;2023-01-09T11:16:57;2.08;;;0.80;;
32138;SDS011;18644;48.700;9.210;2023-01-09T11:19:27;3.45;;;0.73;;
32138;SDS011;18644;48.700;9.210;2023-01-09T11:22:05;3.30;;;0.80;;
32138;SDS011;18644;48.700;9.210;2023-01-09T11:24:33;1.23;;;0.70;;
32138;SDS011;18644;48.700;9.210;2023-01-09T11:27:17;1.48;;;0.95;;
32138;SDS011;18644;48.700;9.210;2023-01-09T11:32:45;2.17;;;0.80;;
32138;SDS011;18644;48.700;9.210;2023-01-09T11:35:14;2.90;;;1.05;;
32138;SDS011;18644;48.700;9.210;2023-01-09T11:37:55;2.25;;;0.98;;
32138;SDS011;18644;48.700;9.210;2023-01-09T11:40:32;1.13;;;0.77;;
32138;SDS011;18644;48.700;9.210;2023-01-09T11:43:11;2.70;;;0.98;;
32138;SDS011;18644;48.700;9.210;2023-01-09T11:45:46;1.50;;;0.77;;
32138;SDS011;18644;48.700;9.210;2023-01-09T11:48:25;1.40;;;0.80;;
32138;SDS011;18644;48.700;9.210;2023-01-09T11:50:58;2.78;;;1.00;;
32138;SDS011;18644;48.700;9.210;2023-01-09T11:53:27;2.00;;;0.90;;
32138;SDS011;18644;48.700;9.210;2023-01-09T11:55:55;5.45;;;0.90;;
32138;SDS011;18644;48.700;9.210;2023-01-09T11:58:27;3.38;;;0.95;;
32138;SDS011;18644;48.700;9.210;2023-01-09T12:01:02;2.60;;;0.90;;
32138;SDS011;18644;48.700;9.210;2023-01-09T12:03:49;2.72;;;0.88;;
32138;SDS011;18644;48.700;9.210;2023-01-09T12:06:38;5.80;;;1.50;;
32138;SDS011;18644;48.700;9.210;2023-01-09T12:09:21;2.28;;;0.77;;
32138;SDS011;18644;48.700;9.210;2023-01-09T12:11:53;3.88;;;1.02;;
32138;SDS011;18644;48.700;9.210;2023-01-09T12:14:30;2.90;;;1.15;;
32138;SDS011;18644;48.700;9.210;2023-01-09T12:17:15;2.00;;;0.65;;
32138;SDS011;18644;48.700;9.210;2023-01-09T12:20:19;2.45;;;1.00;;
32138;SDS011;18644;48.700;9.210;2023-01-09T12:22:59;1.40;;;0.93;;
32138;SDS011;18644;48.700;9.210;2023-01-09T12:25:41;2.17;;;0.88;;
32138;SDS011;18644;48.700;9.210;2023-01-09T12:28:28;2.33;;;0.75;;
32138;SDS011;18644;48.700;9.210;2023-01-09T12:31:11;5.57;;;0.93;;
32138;SDS011;18644;48.700;9.210;2023-01-09T12:33:53;4.03;;;1.33;;
32138;SDS011;18644;48.700;9.210;2023-01-09T12:36:34;2.03;;;0.82;;
32138;SDS011;18644;48.700;9.210;2023-01-09T12:39:11;2.03;;;0.80;;
32138;SDS011;18644;48.700;9.210;2023-01-09T12:42:01;2.95;;;1.20;;
32138;SDS011;18644;48.700;9.210;2023-01-09T12:44:48;1.77;;;1.10;;
32138;SDS011;18644;48.700;9.210;2023-01-09T12:47:27;3.72;;;0.70;;
32138;SDS011;18644;48.700;9.210;2023-01-09T12:50:13;1.52;;;0.70;;
32138;SDS011;18644;48.700;9.210;2023-01-09T12:53:01;2.03;;;0.77;;
32138;SDS011;18644;48.700;9.210;2023-01-09T12:55:37;1.48;;;0.68;;
32138;SDS011;18644;48.700;9.210;2023-01-09T13:00:41;1.75;;;0.88;;
32138;SDS011;18644;48.700;9.210;2023-01-09T13:03:14;2.65;;;0.98;;
32138;SDS011;18644;48.700;9.210;2023-01-09T13:05:48;2.22;;;0.80;;
32138;SDS011;18644;48.700;9.210;2023-01-09T13:08:19;2.33;;;0.80;;
32138;SDS011;18644;48.700;9.210;2023-01-09T13:10:51;4.63;;;1.45;;
32138;SDS011;18644;48.700;9.210;2023-01-09T13:13:23;3.97;;;1.05;;
32138;SDS011;18644;48.700;9.210;2023-01-09T13:15:57;2.45;;;0.90;;
32138;SDS011;18644;48.700;9.210;2023-01-09T13:18:31;1.05;;;0.60;;
32138;SDS011;18644;48.700;9.210;2023-01-09T13:21:05;3.90;;;0.98;;
32138;SDS011;18644;48.700;9.210;2023-01-09T13:23:38;3.47;;;0.98;;
32138;SDS011;18644;48.700;9.210;2023-01-09T13:26:13;1.73;;;0.68;;
32138;SDS011;18644;48.700;9.210;2023-01-09T13:28:45;0.75;;;0.43;;
32138;SDS011;18644;48.700;9.210;2023-01-09T13:31:26;0.77;;;0.50;;
32138;SDS011;18644;48.700;9.210;2023-01-09T13:34:30;1.73;;;0.70;;
32138;SDS011;18644;48.700;9.210;2023-01-09T13:36:59;1.35;;;0.70;;
32138;SDS011;18644;48.700;9.210;2023-01-09T13:39:29;0.57;;;0.57;;
32138;SDS011;18644;48.700;9.210;2023-01-09T13:41:58;0.90;;;0.45;;
32138;SDS011;18644;48.700;9.210;2023-01-09T13:44:51;0.57;;;0.57;;
32138;SDS011;18644;48.700;9.210;2023-01-09T13:47:22;1.60;;;1.13;;
32138;SDS011;18644;48.700;9.210;2023-01-09T13:49:57;0.52;;;0.52;;
32138;SDS011;18644;48.700;9.210;2023-01-09T13:52:47;0.65;;;0.43;;
32138;SDS011;18644;48.700;9.210;2023-01-09T13:55:26;0.75;;;0.40;;
32138;SDS011;18644;48.700;9.210;2023-01-09T13:58:14;0.95;;;0.60;;
32138;SDS011;18644;48.700;9.210;2023-01-09T14:00:55;0.63;;;0.50;;
32138;SDS011;18644;48.700;9.210;2023-01-09T14:03:29;0.45;;;0.45;;
32138;SDS011;18644;48.700;9.210;2023-01-09T14:06:08;0.60;;;0.60;;
32138;SDS011;18644;48.700;9.210;2023-01-09T14:08:41;0.77;;;0.50;;
32138;SDS011;18644;48.700;9.210;2023-01-09T14:11:17;0.60;;;0.60;;
32138;SDS011;18644;48.700;9.210;2023-01-09T14:13:51;0.93;;;0.50;;
32138;SDS011;18644;48.700;9.210;2023-01-09T14:16:38;0.50;;;0.50;;
32138;SDS011;18644;48.700;9.210;2023-01-09T14:19:07;0.88;;;0.70;;
32138;SDS011;18644;48.700;9.210;2023-01-09T14:22:00;0.50;;;0.50;;
32138;SDS011;18644;48.700;9.210;2023-01-09T14:24:28;0.60;;;0.47;;
32138;SDS011;18644;48.700;9.210;2023-01-09T14:27:45;1.45;;;0.85;;
32138;SDS011;18644;48.700;9.210;2023-01-09T14:30:16;0.50;;;0.50;;
32138;SDS011;18644;48.700;9.210;2023-01-09T14:32:57;0.68;;;0.60;;
32138;SDS011;18644;48.700;9.210;2023-01-09T14:35:34;0.52;;;0.52;;
32138;SDS011;18644;48.700;9.210;2023-01-09T14:38:17;0.63;;;0.50;;
32138;SDS011;18644;48.700;9.210;2023-01-09T14:40:53;0.75;;;0.60;;
32138;SDS011;18644;48.700;9.210;2023-01-09T14:46:17;3.50;;;0.60;;
32138;SDS011;18644;48.700;9.210;2023-01-09T14:49:04;0.52;;;0.52;;
32138;SDS011;18644;48.700;9.210;2023-01-09T14:51:40;0.82;;;0.60;;
32138;SDS011;18644;48.700;9.210;2023-01-09T14:54:14;0.98;;;0.68;;
32138;SDS011;18644;48.700;9.210;2023-01-09T14:56:56;0.65;;;0.60;;
32138;SDS011;18644;48.700;9.210;2023-01-09T14:59:28;0.47;;;0.45;;
32138;SDS011;18644;48.700;9.210;2023-01-09T15:01:55;1.23;;;0.70;;
32138;SDS011;18644;48.700;9.210;2023-01-09T15:04:28;0.57;;;0.57;;
32138;SDS011;18644;48.700;9.210;2023-01-09T15:06:59;1.75;;;0.82;;
32138;SDS011;18644;48.700;9.210;2023-01-09T15:09:27;0.50;;;0.50;;
32138;SDS011;18644;48.700;9.210;2023-01-09T15:12:02;1.17;;;0.73;;
32138;SDS011;18644;48.700;9.210;2023-01-09T15:14:35;0.95;;;0.60;;
32138;SDS011;18644;48.700;9.210;2023-01-09T15:19:42;3.80;;;0.63;;
32138;SDS011;18644;48.700;9.210;2023-01-09T15:22:19;3.60;;;0.70;;
32138;SDS011;18644;48.700;9.210;2023-01-09T15:24:49;1.02;;;0.55;;
32138;SDS011;18644;48.700;9.210;2023-01-09T15:27:27;0.75;;;0.57;;
32138;SDS011;18644;48.700;9.210;2023-01-09T15:29:59;1.73;;;0.70;;
32138;SDS011;18644;48.700;9.210;2023-01-09T15:32:42;0.88;;;0.60;;
32138;SDS011;18644;48.700;9.210;2023-01-09T15:35:12;0.50;;;0.50;;